TVF28CY LGSA-LFPO
Flight info
| Callsign | TVF28CY |
|---|---|
| Flight time | N/A |
| Altitude | 38000 |
| Route | SOKRI UY151 DDM DCT XANIS DCT TUMBO DCT VAKSU DCT AMUGO/N0432F370 DCT BAXON/N0436F380 DCT AOSTA DCT ORSUD DCT MOLUS DCT UNKIR/N0406F320 DCT DJL |
| Aircraft | A320/M-SBDE2E3FGHIJ1J5M1P2RWYZ/LB1D1G1 |
Departure
| Time | N/A |
|---|---|
| Airport | Chania International Airport (LGSA) |
Arrival
| Time | 2026-05-05 11:22 |
|---|---|
| Airport | Paris-Orly Airport (LFPO) |
| Time | Latitude | Longitude | Altitude | Speed | Heading |
|---|---|---|---|---|---|
| 2026-05-05 10:23 | 45.63126 | 8.18007 | 38033 ft | 410 kts | 281° |
| 2026-05-05 10:23 | 45.63916 | 8.14092 | 38023 ft | 410 kts | 281° |
| 2026-05-05 10:23 | 45.65583 | 8.05838 | 38018 ft | 410 kts | 281° |
| 2026-05-05 10:24 | 45.67157 | 7.97999 | 38009 ft | 410 kts | 281° |
| 2026-05-05 10:24 | 45.68715 | 7.90209 | 38009 ft | 411 kts | 281° |
| 2026-05-05 10:25 | 45.70277 | 7.82355 | 38020 ft | 410 kts | 281° |
| 2026-05-05 10:25 | 45.71831 | 7.74490 | 38011 ft | 411 kts | 281° |
| 2026-05-05 10:26 | 45.73379 | 7.66596 | 37987 ft | 412 kts | 281° |
| 2026-05-05 10:26 | 45.74933 | 7.58689 | 37994 ft | 413 kts | 281° |
| 2026-05-05 10:27 | 45.76475 | 7.50821 | 37980 ft | 413 kts | 281° |
| 2026-05-05 10:27 | 45.78024 | 7.42900 | 38014 ft | 413 kts | 281° |
| 2026-05-05 10:28 | 45.80447 | 7.35369 | 38008 ft | 425 kts | 300° |
| 2026-05-05 10:28 | 45.82385 | 7.32124 | 38009 ft | 433 kts | 311° |
| 2026-05-05 10:28 | 45.84742 | 7.29391 | 38004 ft | 439 kts | 319° |
| 2026-05-05 10:29 | 45.89736 | 7.24333 | 37988 ft | 439 kts | 319° |
| 2026-05-05 10:29 | 45.94694 | 7.19284 | 37966 ft | 439 kts | 319° |
| 2026-05-05 10:30 | 45.99674 | 7.14202 | 37910 ft | 439 kts | 319° |
| 2026-05-05 10:30 | 46.04661 | 7.09090 | 37904 ft | 441 kts | 319° |
| 2026-05-05 10:31 | 46.09656 | 7.03957 | 37897 ft | 442 kts | 319° |
| 2026-05-05 10:31 | 46.14623 | 6.98835 | 37885 ft | 442 kts | 319° |
| 2026-05-05 10:32 | 46.19629 | 6.93675 | 37888 ft | 442 kts | 320° |
| 2026-05-05 10:32 | 46.24639 | 6.88496 | 37892 ft | 443 kts | 319° |
| 2026-05-05 10:33 | 46.29645 | 6.83300 | 37902 ft | 443 kts | 319° |
| 2026-05-05 10:33 | 46.34619 | 6.78132 | 37919 ft | 443 kts | 319° |
| 2026-05-05 10:34 | 46.39618 | 6.72924 | 37913 ft | 442 kts | 320° |
| 2026-05-05 10:34 | 46.44266 | 6.67202 | 37905 ft | 435 kts | 306° |
| 2026-05-05 10:35 | 46.47552 | 6.59986 | 37908 ft | 427 kts | 295° |
| 2026-05-05 10:35 | 46.50495 | 6.52536 | 37907 ft | 428 kts | 295° |
| 2026-05-05 10:36 | 46.53467 | 6.45041 | 37931 ft | 429 kts | 295° |
| 2026-05-05 10:36 | 46.56431 | 6.37508 | 37912 ft | 430 kts | 295° |
| 2026-05-05 10:37 | 46.59394 | 6.29953 | 37903 ft | 430 kts | 295° |
| 2026-05-05 10:37 | 46.62335 | 6.22437 | 37905 ft | 431 kts | 295° |
| 2026-05-05 10:38 | 46.65290 | 6.14850 | 37903 ft | 431 kts | 295° |
| 2026-05-05 10:38 | 46.68243 | 6.07250 | 37932 ft | 431 kts | 295° |
| 2026-05-05 10:39 | 46.71191 | 5.99637 | 37904 ft | 432 kts | 295° |
| 2026-05-05 10:39 | 46.74145 | 5.92002 | 37897 ft | 432 kts | 295° |
| 2026-05-05 10:40 | 46.77073 | 5.84408 | 37897 ft | 433 kts | 295° |
| 2026-05-05 10:40 | 46.80015 | 5.76756 | 37892 ft | 432 kts | 295° |
| 2026-05-05 10:41 | 46.83713 | 5.69751 | 37906 ft | 442 kts | 313° |
| 2026-05-05 10:41 | 46.88213 | 5.63602 | 37895 ft | 444 kts | 313° |
| 2026-05-05 10:42 | 46.94926 | 5.54382 | 37890 ft | 444 kts | 312° |
| 2026-05-05 10:43 | 46.99417 | 5.48181 | 37886 ft | 444 kts | 312° |
| 2026-05-05 10:43 | 47.03908 | 5.41972 | 37889 ft | 444 kts | 312° |
| 2026-05-05 10:44 | 47.08401 | 5.35745 | 37886 ft | 444 kts | 313° |
| 2026-05-05 10:44 | 47.12898 | 5.29501 | 37796 ft | 446 kts | 313° |
| 2026-05-05 10:44 | 47.15135 | 5.26396 | 36781 ft | 454 kts | 313° |
| 2026-05-05 10:45 | 47.17444 | 5.23184 | 35888 ft | 458 kts | 313° |
| 2026-05-05 10:45 | 47.19762 | 5.19964 | 35010 ft | 461 kts | 313° |
| 2026-05-05 10:45 | 47.22109 | 5.16694 | 34049 ft | 468 kts | 313° |
| 2026-05-05 10:45 | 47.24471 | 5.13395 | 33195 ft | 468 kts | 313° |
| 2026-05-05 10:46 | 47.26830 | 5.10097 | 32480 ft | 465 kts | 313° |
| 2026-05-05 10:46 | 47.29130 | 5.06793 | 31936 ft | 458 kts | 312° |
| 2026-05-05 10:46 | 47.31345 | 5.03454 | 31376 ft | 453 kts | 310° |
| 2026-05-05 10:46 | 47.33499 | 5.00097 | 30834 ft | 448 kts | 310° |
| 2026-05-05 10:47 | 47.35613 | 4.96754 | 30304 ft | 444 kts | 310° |
| 2026-05-05 10:47 | 47.37685 | 4.93472 | 29732 ft | 441 kts | 310° |
| 2026-05-05 10:47 | 47.39775 | 4.90187 | 29192 ft | 436 kts | 310° |
| 2026-05-05 10:47 | 47.41843 | 4.86967 | 28702 ft | 429 kts | 311° |
| 2026-05-05 10:48 | 47.43889 | 4.83807 | 28228 ft | 422 kts | 311° |
| 2026-05-05 10:48 | 47.45905 | 4.80699 | 27718 ft | 416 kts | 311° |
| 2026-05-05 10:48 | 47.47886 | 4.77639 | 27263 ft | 409 kts | 311° |
| 2026-05-05 10:48 | 47.49840 | 4.74612 | 26789 ft | 404 kts | 311° |
| 2026-05-05 10:49 | 47.51766 | 4.71623 | 26558 ft | 400 kts | 311° |
| 2026-05-05 10:49 | 47.53684 | 4.68642 | 26303 ft | 399 kts | 311° |
| 2026-05-05 10:49 | 47.55565 | 4.65712 | 26037 ft | 397 kts | 311° |
| 2026-05-05 10:49 | 47.57463 | 4.62752 | 25781 ft | 395 kts | 311° |
| 2026-05-05 10:50 | 47.59349 | 4.59804 | 25537 ft | 393 kts | 311° |
| 2026-05-05 10:50 | 47.61220 | 4.56877 | 25267 ft | 389 kts | 311° |
| 2026-05-05 10:50 | 47.63075 | 4.53972 | 25015 ft | 387 kts | 311° |
| 2026-05-05 10:50 | 47.64922 | 4.51081 | 24754 ft | 385 kts | 311° |
| 2026-05-05 10:51 | 47.66757 | 4.48207 | 24504 ft | 383 kts | 311° |
| 2026-05-05 10:51 | 47.68560 | 4.45378 | 24263 ft | 381 kts | 311° |
| 2026-05-05 10:51 | 47.70377 | 4.42524 | 24017 ft | 380 kts | 311° |
| 2026-05-05 10:51 | 47.72186 | 4.39681 | 23764 ft | 378 kts | 311° |
| 2026-05-05 10:52 | 47.73984 | 4.36853 | 23511 ft | 375 kts | 311° |
| 2026-05-05 10:52 | 47.75771 | 4.34037 | 23247 ft | 374 kts | 311° |
| 2026-05-05 10:52 | 47.77548 | 4.31231 | 22995 ft | 372 kts | 311° |
| 2026-05-05 10:52 | 47.79314 | 4.28435 | 22755 ft | 370 kts | 311° |
| 2026-05-05 10:53 | 47.81075 | 4.25644 | 22517 ft | 369 kts | 311° |
| 2026-05-05 10:53 | 47.82829 | 4.22861 | 22281 ft | 368 kts | 311° |
| 2026-05-05 10:53 | 47.84552 | 4.20128 | 22036 ft | 366 kts | 312° |
| 2026-05-05 10:53 | 47.86282 | 4.17355 | 21808 ft | 365 kts | 309° |
| 2026-05-05 10:54 | 47.87736 | 4.14279 | 21565 ft | 362 kts | 298° |
| 2026-05-05 10:54 | 47.88753 | 4.10865 | 21324 ft | 359 kts | 286° |
| 2026-05-05 10:54 | 47.89354 | 4.07270 | 21092 ft | 357 kts | 280° |
| 2026-05-05 10:54 | 47.89879 | 4.03659 | 20856 ft | 356 kts | 280° |
| 2026-05-05 10:55 | 47.90402 | 4.00067 | 20626 ft | 354 kts | 280° |
| 2026-05-05 10:55 | 47.90927 | 3.96484 | 20400 ft | 353 kts | 280° |
| 2026-05-05 10:55 | 47.91448 | 3.92917 | 20162 ft | 352 kts | 280° |
| 2026-05-05 10:55 | 47.91960 | 3.89408 | 19933 ft | 350 kts | 280° |
| 2026-05-05 10:56 | 47.92474 | 3.85869 | 19709 ft | 349 kts | 280° |
| 2026-05-05 10:56 | 47.92983 | 3.82337 | 19477 ft | 348 kts | 280° |
| 2026-05-05 10:56 | 47.93487 | 3.78823 | 19252 ft | 346 kts | 280° |
| 2026-05-05 10:56 | 47.93988 | 3.75317 | 19028 ft | 345 kts | 280° |
| 2026-05-05 10:57 | 47.94485 | 3.71824 | 18801 ft | 343 kts | 279° |
| 2026-05-05 10:57 | 47.94979 | 3.68347 | 18577 ft | 342 kts | 279° |
| 2026-05-05 10:57 | 47.95472 | 3.64882 | 18358 ft | 341 kts | 279° |
| 2026-05-05 10:57 | 47.95963 | 3.61439 | 18130 ft | 338 kts | 281° |
| 2026-05-05 10:58 | 47.96684 | 3.58110 | 17890 ft | 338 kts | 292° |
| 2026-05-05 10:58 | 47.97861 | 3.55075 | 17550 ft | 340 kts | 305° |
| 2026-05-05 10:58 | 47.99411 | 3.52479 | 17110 ft | 340 kts | 314° |
| 2026-05-05 10:58 | 48.01074 | 3.49973 | 16697 ft | 339 kts | 313° |
| 2026-05-05 10:59 | 48.02728 | 3.47467 | 16278 ft | 337 kts | 313° |
| 2026-05-05 10:59 | 48.04365 | 3.44976 | 15869 ft | 335 kts | 313° |
| 2026-05-05 10:59 | 48.05989 | 3.42491 | 15458 ft | 333 kts | 313° |
| 2026-05-05 10:59 | 48.07604 | 3.40015 | 15061 ft | 332 kts | 313° |
| 2026-05-05 11:00 | 48.09212 | 3.37551 | 14648 ft | 331 kts | 313° |
| 2026-05-05 11:00 | 48.10817 | 3.35093 | 14231 ft | 330 kts | 313° |
| 2026-05-05 11:00 | 48.12395 | 3.32671 | 13846 ft | 329 kts | 313° |
| 2026-05-05 11:00 | 48.13991 | 3.30214 | 13420 ft | 329 kts | 313° |
| 2026-05-05 11:01 | 48.15578 | 3.27766 | 13001 ft | 327 kts | 313° |
| 2026-05-05 11:01 | 48.17155 | 3.25332 | 12653 ft | 324 kts | 313° |
| 2026-05-05 11:01 | 48.18718 | 3.22920 | 12327 ft | 319 kts | 314° |
| 2026-05-05 11:01 | 48.20257 | 3.20548 | 11908 ft | 318 kts | 314° |
| 2026-05-05 11:02 | 48.21792 | 3.18185 | 11599 ft | 314 kts | 314° |
| 2026-05-05 11:02 | 48.23314 | 3.15849 | 11196 ft | 312 kts | 314° |
| 2026-05-05 11:02 | 48.24823 | 3.13533 | 10859 ft | 309 kts | 314° |
| 2026-05-05 11:02 | 48.26294 | 3.11270 | 10531 ft | 305 kts | 314° |
| 2026-05-05 11:03 | 48.27767 | 3.08998 | 10215 ft | 303 kts | 314° |
| 2026-05-05 11:03 | 48.29230 | 3.06739 | 9917 ft | 300 kts | 314° |
| 2026-05-05 11:03 | 48.30682 | 3.04492 | 9826 ft | 299 kts | 314° |
| 2026-05-05 11:03 | 48.32134 | 3.02246 | 9839 ft | 300 kts | 314° |
| 2026-05-05 11:04 | 48.33589 | 2.99998 | 9838 ft | 300 kts | 315° |
| 2026-05-05 11:04 | 48.35036 | 2.97760 | 9838 ft | 298 kts | 316° |
| 2026-05-05 11:04 | 48.36476 | 2.95526 | 9841 ft | 297 kts | 316° |
| 2026-05-05 11:04 | 48.37913 | 2.93290 | 9841 ft | 297 kts | 316° |
| 2026-05-05 11:05 | 48.39347 | 2.91053 | 9840 ft | 297 kts | 316° |
| 2026-05-05 11:05 | 48.40761 | 2.88846 | 9837 ft | 297 kts | 316° |
| 2026-05-05 11:05 | 48.42192 | 2.86617 | 9839 ft | 295 kts | 316° |
| 2026-05-05 11:05 | 48.43619 | 2.84395 | 9840 ft | 295 kts | 315° |
| 2026-05-05 11:06 | 48.44828 | 2.81891 | 9841 ft | 298 kts | 299° |
| 2026-05-05 11:06 | 48.45549 | 2.78964 | 9840 ft | 300 kts | 283° |
| 2026-05-05 11:06 | 48.45760 | 2.75836 | 9840 ft | 301 kts | 273° |
| 2026-05-05 11:06 | 48.45846 | 2.72686 | 9841 ft | 301 kts | 273° |
| 2026-05-05 11:07 | 48.45933 | 2.69539 | 9839 ft | 301 kts | 273° |
| 2026-05-05 11:07 | 48.46022 | 2.66392 | 9843 ft | 301 kts | 273° |
| 2026-05-05 11:07 | 48.46114 | 2.63286 | 9842 ft | 300 kts | 274° |
| 2026-05-05 11:07 | 48.46245 | 2.60144 | 9838 ft | 300 kts | 275° |
| 2026-05-05 11:08 | 48.46402 | 2.57022 | 9593 ft | 298 kts | 276° |
| 2026-05-05 11:08 | 48.46567 | 2.53913 | 9315 ft | 297 kts | 276° |
| 2026-05-05 11:08 | 48.46731 | 2.50812 | 9024 ft | 296 kts | 276° |
| 2026-05-05 11:08 | 48.46890 | 2.47726 | 8715 ft | 295 kts | 275° |
| 2026-05-05 11:09 | 48.47044 | 2.44652 | 8398 ft | 293 kts | 275° |
| 2026-05-05 11:09 | 48.47192 | 2.41597 | 8021 ft | 292 kts | 275° |
| 2026-05-05 11:09 | 48.47334 | 2.38562 | 7594 ft | 289 kts | 275° |
| 2026-05-05 11:09 | 48.47473 | 2.35593 | 7183 ft | 287 kts | 275° |
| 2026-05-05 11:10 | 48.47612 | 2.32606 | 6867 ft | 285 kts | 275° |
| 2026-05-05 11:10 | 48.47747 | 2.29616 | 6840 ft | 287 kts | 275° |
| 2026-05-05 11:10 | 48.47883 | 2.26616 | 6845 ft | 287 kts | 275° |
| 2026-05-05 11:10 | 48.48021 | 2.23619 | 6839 ft | 287 kts | 275° |
| 2026-05-05 11:11 | 48.48160 | 2.20616 | 6834 ft | 287 kts | 275° |
| 2026-05-05 11:11 | 48.48297 | 2.17613 | 6835 ft | 287 kts | 275° |
| 2026-05-05 11:11 | 48.48432 | 2.14612 | 6828 ft | 287 kts | 274° |
| 2026-05-05 11:11 | 48.48565 | 2.11637 | 6807 ft | 279 kts | 275° |
| 2026-05-05 11:12 | 48.48695 | 2.08746 | 6553 ft | 274 kts | 275° |
| 2026-05-05 11:12 | 48.48822 | 2.05893 | 6259 ft | 271 kts | 274° |
| 2026-05-05 11:12 | 48.48944 | 2.03111 | 5953 ft | 269 kts | 274° |
| 2026-05-05 11:12 | 48.49065 | 2.00307 | 5643 ft | 267 kts | 274° |
| 2026-05-05 11:13 | 48.49224 | 1.97532 | 5347 ft | 264 kts | 282° |
| 2026-05-05 11:13 | 48.49897 | 1.95015 | 5106 ft | 257 kts | 306° |
| 2026-05-05 11:13 | 48.51146 | 1.93170 | 4908 ft | 250 kts | 330° |
| 2026-05-05 11:13 | 48.52732 | 1.92255 | 4707 ft | 241 kts | 354° |
| 2026-05-05 11:14 | 48.54367 | 1.92331 | 4515 ft | 232 kts | 16° |
| 2026-05-05 11:14 | 48.55792 | 1.93275 | 4382 ft | 218 kts | 37° |
| 2026-05-05 11:14 | 48.56914 | 1.94645 | 4257 ft | 205 kts | 41° |
| 2026-05-05 11:14 | 48.57989 | 1.95986 | 4136 ft | 196 kts | 41° |
| 2026-05-05 11:15 | 48.59019 | 1.97265 | 4045 ft | 187 kts | 41° |
| 2026-05-05 11:15 | 48.59968 | 1.98518 | 3988 ft | 175 kts | 51° |
| 2026-05-05 11:15 | 48.60633 | 2.00001 | 4017 ft | 168 kts | 59° |
| 2026-05-05 11:15 | 48.61219 | 2.01530 | 4012 ft | 168 kts | 61° |
| 2026-05-05 11:16 | 48.61786 | 2.03074 | 4005 ft | 168 kts | 61° |
| 2026-05-05 11:16 | 48.62336 | 2.04596 | 4004 ft | 167 kts | 61° |
| 2026-05-05 11:16 | 48.62891 | 2.06141 | 3996 ft | 168 kts | 62° |
| 2026-05-05 11:16 | 48.63449 | 2.07698 | 3862 ft | 168 kts | 62° |
| 2026-05-05 11:17 | 48.64003 | 2.09245 | 3670 ft | 167 kts | 62° |
| 2026-05-05 11:17 | 48.64553 | 2.10784 | 3459 ft | 167 kts | 62° |
| 2026-05-05 11:17 | 48.65106 | 2.12331 | 3245 ft | 167 kts | 61° |
| 2026-05-05 11:17 | 48.65655 | 2.13867 | 3024 ft | 165 kts | 61° |
| 2026-05-05 11:18 | 48.66202 | 2.15401 | 2801 ft | 166 kts | 62° |
| 2026-05-05 11:18 | 48.66742 | 2.16916 | 2566 ft | 160 kts | 60° |
| 2026-05-05 11:18 | 48.67246 | 2.18330 | 2381 ft | 149 kts | 60° |
| 2026-05-05 11:18 | 48.67722 | 2.19665 | 2180 ft | 139 kts | 60° |
| 2026-05-05 11:19 | 48.68164 | 2.20908 | 1999 ft | 130 kts | 59° |
| 2026-05-05 11:19 | 48.68585 | 2.22088 | 1825 ft | 125 kts | 59° |
| 2026-05-05 11:19 | 48.68990 | 2.23228 | 1661 ft | 122 kts | 59° |
| 2026-05-05 11:19 | 48.69392 | 2.24357 | 1487 ft | 122 kts | 59° |
| 2026-05-05 11:20 | 48.69794 | 2.25487 | 1302 ft | 122 kts | 59° |
| 2026-05-05 11:20 | 48.70194 | 2.26613 | 1140 ft | 122 kts | 58° |
| 2026-05-05 11:20 | 48.70595 | 2.27743 | 966 ft | 122 kts | 60° |
| 2026-05-05 11:20 | 48.70993 | 2.28886 | 766 ft | 123 kts | 59° |
| 2026-05-05 11:21 | 48.71395 | 2.30001 | 649 ft | 122 kts | 58° |
| 2026-05-05 11:21 | 48.71803 | 2.31147 | 456 ft | 123 kts | 59° |
| 2026-05-05 11:21 | 48.72210 | 2.32288 | 336 ft | 123 kts | 59° |
| 2026-05-05 11:21 | 48.72595 | 2.33371 | 302 ft | 101 kts | 62° |
| 2026-05-05 11:22 | 48.72839 | 2.34067 | 301 ft | 49 kts | 62° |
| 2026-05-05 11:22 | 48.72950 | 2.34384 | 299 ft | 26 kts | 63° |
| 2026-05-05 11:22 | 48.72997 | 2.34618 | 297 ft | 22 kts | 82° |
| 2026-05-05 11:22 | 48.73020 | 2.34858 | 299 ft | 22 kts | 82° |
| 2026-05-05 11:23 | 48.73039 | 2.35057 | 298 ft | 16 kts | 82° |
| 2026-05-05 11:23 | 48.73015 | 2.35226 | 298 ft | 18 kts | 123° |
| 2026-05-05 11:23 | 48.72931 | 2.35315 | 298 ft | 12 kts | 155° |
| 2026-05-05 11:23 | 48.72899 | 2.35379 | 298 ft | 6 kts | 110° |
| 2026-05-05 11:24 | 48.72865 | 2.35426 | 298 ft | 9 kts | 161° |
| 2026-05-05 11:24 | 48.72801 | 2.35454 | 300 ft | 10 kts | 165° |
| 2026-05-05 11:24 | 48.72735 | 2.35481 | 297 ft | 10 kts | 165° |
| 2026-05-05 11:24 | 48.72667 | 2.35510 | 301 ft | 10 kts | 164° |
| 2026-05-05 11:25 | 48.72597 | 2.35540 | 298 ft | 11 kts | 164° |
| 2026-05-05 11:25 | 48.72526 | 2.35570 | 301 ft | 9 kts | 164° |
| 2026-05-05 11:25 | 48.72472 | 2.35595 | 301 ft | 8 kts | 155° |
| 2026-05-05 11:25 | 48.72460 | 2.35669 | 299 ft | 10 kts | 72° |
| 2026-05-05 11:26 | 48.72478 | 2.35801 | 298 ft | 15 kts | 93° |
| 2026-05-05 11:26 | 48.72468 | 2.35968 | 298 ft | 16 kts | 91° |
| 2026-05-05 11:26 | 48.72488 | 2.36132 | 300 ft | 14 kts | 74° |
| 2026-05-05 11:26 | 48.72515 | 2.36277 | 298 ft | 15 kts | 74° |
| 2026-05-05 11:27 | 48.72531 | 2.36362 | 300 ft | 4 kts | 75° |
| 2026-05-05 11:27 | 48.72552 | 2.36384 | 299 ft | 5 kts | 5° |
| 2026-05-05 11:27 | 48.72597 | 2.36369 | 301 ft | 5 kts | 350° |
| 2026-05-05 11:27 | 48.72613 | 2.36365 | 299 ft | 1 kts | 349° |
| 2026-05-05 11:28 | 48.72616 | 2.36364 | 299 ft | 0 kts | 349° |